Scroll down
FLIGHT INFORMATION
American Airlines

AAL4756

At Arrival Gate

KORD
 KBOS
DATE: 2021-02-21
GATE: K13
GATE DEPARTURE: 21:09
TAKEOFF: 21:23
DATE: 2021-02-21
GATE: C21
LANDING: 23:00
GATE ARRIVAL: 23:15
FLIGHT DATA
Crew: 
Speed: 
492 kts
Altitude: 
39,008 ft
Stage Length: 
751.1 nm
Block Time: 
2.1 hrs
Flight Time: 
1.6 hrs
Fuel Used: 
25,273 lb
Cleared Route: KORD EBAKE WISMO POSTS PADDE SVM DKK PONCT STOLI MNSTA SEETS DUBLE BASEZ JFUND AUTUM WINTA HRRIS SPYSD REVER SEHAG LONER RW27
TRACK DATA
50,000 ft 1,000 kts
AIRCRAFT INFO AND CUMULATIVE STATS
Aircraft Type: 
B772
Registration: 
SELCAL: 
BLEK
MSN/LN: 
32638 / 376
Operator: 
Total Flights: 
9
Total Block Time: 
30.1 hrs
Total Flight Time: 
26.7 hrs
Total Fuel Used: 
406,554 lb
DATALINK LOG | Newest first | Current as of: 2022-11-26 09:17:28
LABEL SEQUENCE CONTENT Dn/Up
QD175323:15 15.3▼ Dn
QC023923:00▼ Dn
5Z230921 FEB 21 22:20:54z / FLT DECK GOOD / ACF POS GOOD / GRND SERVICES GOOD / MAINT GOOD▼ Dn
GA2318GATE C21▲ Up
GR2308KBOS 22:55 MAAS 00 YP/UM 01/02 WCHR/S/C 03/04/05 HI-VAL NO DIPL/VIP YES▼ Dn
UM2122217KBOS ATIS - BOS ATIS INFO C 2154Z. 33007KT 10SM FEW043 00/M12 A3044 (THREE ZERO FOUR FOUR) RMK SLP308. ILS RWY 27, DEP 33L. READBACK ALL HOLD SHORT INSTRCNS AND ASSIGNED ALTITUDES. NUMEROUS CRANES IN BOSTON AREA AND IN VICINITY OF LOGAN AIRPORT. TWY Z CLSD. BOSTON CLEARANCE DELIVERY IS CLOSED PLEASE CONTACT CONTACT GROUND ON 121.9 FOR CLEARANCE, PUSH, OR TAXI. ...ADVS YOU HAVE INFO C.▲ Up
DM792207 ATIS KBOS D▼ Dn
QB261821:23▼ Dn
2U1506KORD 212051Z 14011KT 10SM SCT090 BKN110 BKN130 OVC250 03/M05 A2994 RMK AO2 SLP146 T00281050 56064▲ Up
2S1710KORD▼ Dn
QA120621:09 40.5▼ Dn
A30207CLEARED TO KBOS VIA EBAKE WISMO POSTS PADDE SVM DKK PONCT JFUND2. SQUAWK 4535.▲ Up
5U0056KBOS 220058Z 31006KT 10SM SCT200 00/M13 A3044▲ Up
2U0053KORD 211951Z 14011KT 10SM BKN110 OVC200 02/M06 A3000 RMK AO2 SLP168 T00221056▲ Up
5S0204KBOS▼ Dn
2S0204KORD▼ Dn
Q00056[LINK ACK]▲ Up
Q00056[LINK TEST]▼ Dn


AIRCRAFT HISTORY
FLIGHT DATE FLIGHT NO. ORIGIN DESTINATION CLEARED ROUTE BLOCK TIME FLIGHT TIME FUEL USED PILOT
2022-02-04AAL204KORD KJFK KORD DUFEE ELX HAAKK DOXXY DXO JHW HOXIE DMACK STENT MAGIO LVZ KJFK1.7 hrs1.5 hrs24,215 lbJohn Binner
2021-12-25AAL2303KMIA KORD KMIA CSALT DEALZ SOESO NIBLT JOENZ HURCN JAYMC KPASA JINOS BRUTS JAMIZ JOHNN ATL KAILL GLAZR JEDER HELUB VOSTK ROYYZ HEVAN BONNT NYLEN VEECK BOONE HANNI CLUSO KAYTO PINKK MONKZ JORJO POSSM FNUCH RW22R3.5 hrs2.9 hrs42,573 lbMichael Collier
2021-12-13AAL529KLAX KMIA KLAX DOCKR WEILR SHAEF PEVEE TANNN NNICE PNDAH TCATE IPL HEEDS BZA HOGGZ MOHAK JUDTH GBN TFD TOTEC ITEMM SSO EWM KA09W FUSCO KH03C KAPAA KH87I LEV BLVNS BUNNZ BACCA CIGAR GAWKS BAGGS BETTL MATCY RAKLE HARAP FROGZ ARRTT ASPPN PBJAY MABYB ACERE LLEGG COPRA RW08R4.6 hrs4.3 hrs57,090 lbDan Downs
2021-04-24AAL314KMIA KLAX KMIA SENOY CIMBA FORKK BORLE MEAGN WINCO CHRRI DOLIE SRQ HRV KH03I LFK KF12C ABI TCS KA21Q ESTWD MCQWN MDLER MNROE HLYWD BRUEN AVATR DAAAY WADUP NEILE SEAVU SHELL RW25R5.8 hrs5.2 hrs83,880 lbDouglas Morlan
2021-04-24AAL424KDEN KMIA KDEN SHAYK BVO RZC LIT MGM ACORI BULZI SNAPY NICKI BITNY ENDEW JUULI KMIA3.4 hrs3.1 hrs47,816 lbDouglas Morlan
2021-03-13AAL267KBOS KDEN KBOS TJAYY BOATT HEARR MARBB HYLND HANAA ARNII GOATR AHPAH KELTI CFQHD AGDOX OMRAK CFRCN HOCKE MONEE DBQ CAPPR JORDY TODDO OBH BRWRY DUNKL KOLSH PLZNR LAWGR PPINT BURRP YUPEE FFFAT DOGGG DORRY RW35R4.5 hrs4.2 hrs63,697 lbPete L.
2021-02-21AAL4756KORD KBOS KORD EBAKE WISMO POSTS PADDE SVM DKK PONCT STOLI MNSTA SEETS DUBLE BASEZ JFUND AUTUM WINTA HRRIS SPYSD REVER SEHAG LONER RW272.1 hrs1.6 hrs25,273 lbGeorge
2021-02-21AAL4201KAUS KORD KAUS WLMRT ELOEL KLNGR FUZ MLC SGF WELTS MCDEE CASHN VINCA MAROC KELTS FNBAR TRIDE SHAIN RAGSS JUMPN NUNWS RRUDA RW10C2.2 hrs1.8 hrs27,353 lbGeorge
2021-02-21AAL519KLAS KAUS KLAS INW CNX KA21W KF15Y DILLO KAUS2.4 hrs2 hrs34,657 lbChemtrails